createdAt,value
2022-07-25T00:01:51.178Z,87.00
2022-07-25T00:04:18.709Z,87.20
2022-07-25T00:06:45.890Z,87.10
2022-07-25T00:09:12.686Z,86.40
2022-07-25T00:11:39.562Z,86.10
2022-07-25T00:14:07.074Z,86.50
2022-07-25T00:16:34.624Z,85.80
2022-07-25T00:19:02.166Z,85.60
2022-07-25T00:21:29.094Z,85.70
2022-07-25T00:23:55.876Z,85.80
2022-07-25T00:26:23.211Z,85.80
2022-07-25T00:28:49.998Z,85.40
2022-07-25T00:31:17.130Z,85.30
2022-07-25T00:33:43.988Z,84.70
2022-07-25T00:36:11.241Z,84.70
2022-07-25T00:38:38.069Z,84.30
2022-07-25T00:41:05.079Z,84.20
2022-07-25T00:43:32.373Z,84.40
2022-07-25T00:45:59.807Z,84.00
2022-07-25T00:48:28.634Z,83.90
2022-07-25T00:50:59.594Z,83.90
2022-07-25T00:53:26.392Z,83.60
2022-07-25T00:55:53.399Z,83.30
2022-07-25T00:58:20.240Z,83.20
2022-07-25T01:00:47.857Z,83.10
2022-07-25T01:03:15.380Z,83.00
2022-07-25T01:05:42.584Z,82.80
2022-07-25T01:08:10.054Z,82.30
2022-07-25T01:10:37.637Z,82.10
2022-07-25T01:13:04.946Z,82.50
2022-07-25T01:15:32.221Z,82.30
2022-07-25T01:17:59.088Z,81.90
2022-07-25T01:20:28.648Z,82.40
2022-07-25T01:22:56.032Z,82.30
2022-07-25T01:25:23.441Z,81.80
2022-07-25T01:27:55.776Z,81.60
2022-07-25T01:30:24.758Z,81.60
2022-07-25T01:32:52.587Z,81.60
2022-07-25T01:35:19.541Z,81.20
2022-07-25T01:37:47.205Z,81.60
2022-07-25T01:40:15.022Z,81.40
2022-07-25T01:42:43.128Z,81.00
2022-07-25T01:45:12.293Z,81.70
2022-07-25T01:47:39.101Z,82.80
2022-07-25T01:50:06.883Z,81.10
2022-07-25T01:52:33.766Z,81.30
2022-07-25T01:55:00.585Z,81.80
2022-07-25T01:57:30.668Z,81.50
2022-07-25T01:59:58.575Z,81.80
2022-07-25T02:02:25.886Z,81.10
2022-07-25T02:04:53.196Z,81.10
2022-07-25T02:07:20.274Z,81.20
2022-07-25T02:09:47.064Z,80.60
2022-07-25T02:12:13.975Z,81.30
2022-07-25T02:14:41.395Z,81.60
2022-07-25T02:17:08.748Z,80.90
2022-07-25T02:19:36.445Z,80.80
2022-07-25T02:22:03.446Z,81.10
2022-07-25T02:24:32.846Z,81.70
2022-07-25T02:26:59.708Z,81.30
2022-07-25T02:29:26.826Z,80.80
2022-07-25T02:31:53.701Z,80.90
2022-07-25T02:34:21.352Z,81.20
2022-07-25T02:36:48.290Z,81.10
2022-07-25T02:39:15.361Z,80.60
2022-07-25T02:41:44.517Z,80.50
2022-07-25T02:44:11.634Z,80.10
2022-07-25T02:46:38.407Z,79.50
2022-07-25T02:49:05.483Z,79.30
2022-07-25T02:51:32.302Z,78.90
2022-07-25T02:53:59.380Z,78.10
2022-07-25T02:56:30.286Z,77.30
2022-07-25T02:58:59.106Z,76.80
2022-07-25T03:01:26.028Z,76.20
2022-07-25T03:03:53.075Z,75.40
2022-07-25T03:06:20.036Z,75.20
2022-07-25T03:08:47.411Z,74.80
2022-07-25T03:11:14.506Z,74.30
2022-07-25T03:13:41.322Z,74.50
2022-07-25T03:16:08.630Z,74.20
2022-07-25T03:18:35.422Z,74.20
2022-07-25T03:21:02.689Z,74.50
2022-07-25T03:23:31.000Z,74.70
2022-07-25T03:25:59.037Z,74.90
2022-07-25T03:28:26.967Z,74.40
2022-07-25T03:30:53.954Z,74.00
2022-07-25T03:33:21.509Z,73.70
2022-07-25T03:35:48.553Z,73.40
2022-07-25T03:38:15.370Z,72.90
2022-07-25T03:40:42.171Z,72.70
2022-07-25T03:43:08.916Z,72.30
2022-07-25T03:45:35.724Z,72.20
2022-07-25T03:48:02.517Z,72.50
2022-07-25T03:50:29.369Z,72.50
2022-07-25T03:52:56.324Z,72.60
2022-07-25T03:55:23.903Z,72.50
2022-07-25T03:57:50.863Z,72.20
2022-07-25T04:00:20.807Z,72.40
2022-07-25T04:02:48.615Z,72.50
2022-07-25T04:05:15.497Z,71.90
2022-07-25T04:07:42.235Z,71.80
2022-07-25T04:10:09.799Z,71.20
2022-07-25T04:12:37.661Z,71.10
2022-07-25T04:15:05.043Z,70.90
2022-07-25T04:17:32.671Z,70.80
2022-07-25T04:19:59.604Z,70.60
2022-07-25T04:22:26.898Z,70.50
2022-07-25T04:24:53.648Z,70.10
2022-07-25T04:27:20.822Z,70.10
2022-07-25T04:29:47.927Z,70.00
2022-07-25T04:32:21.388Z,69.70
2022-07-25T04:34:51.442Z,69.60
2022-07-25T04:37:18.547Z,69.40
2022-07-25T04:39:45.385Z,69.70
2022-07-25T04:42:12.147Z,69.40
2022-07-25T04:44:38.878Z,69.30
2022-07-25T04:47:05.959Z,69.60
2022-07-25T04:49:32.774Z,69.80
2022-07-25T04:51:59.619Z,69.40
2022-07-25T04:54:26.406Z,69.40
2022-07-25T04:56:53.177Z,69.60
2022-07-25T04:59:20.240Z,69.40
2022-07-25T05:01:47.078Z,69.80
2022-07-25T05:04:14.076Z,70.10
2022-07-25T05:06:40.918Z,69.90
2022-07-25T05:09:07.737Z,69.70
2022-07-25T05:11:34.495Z,69.60
2022-07-25T05:14:01.593Z,69.60
2022-07-25T05:16:28.415Z,69.30
2022-07-25T05:18:55.637Z,69.30
2022-07-25T05:21:23.279Z,69.30
2022-07-25T05:23:50.203Z,69.10
2022-07-25T05:26:17.219Z,68.50
2022-07-25T05:28:44.456Z,68.70
2022-07-25T05:31:12.236Z,68.70
2022-07-25T05:33:40.634Z,68.70
2022-07-25T05:36:08.722Z,69.00
2022-07-25T05:38:35.614Z,69.60
2022-07-25T05:41:02.368Z,70.60
2022-07-25T05:43:29.774Z,70.60
2022-07-25T05:46:04.849Z,71.50
2022-07-25T05:48:34.239Z,71.70
2022-07-25T05:51:01.176Z,71.50
2022-07-25T05:53:28.041Z,72.00
2022-07-25T05:55:54.959Z,72.10
2022-07-25T05:58:26.147Z,71.60
2022-07-25T06:00:57.368Z,71.10
2022-07-25T06:03:24.489Z,70.60
2022-07-25T06:05:52.430Z,70.80
2022-07-25T06:08:20.136Z,70.90
2022-07-25T06:10:49.976Z,71.50
2022-07-25T06:13:16.754Z,71.60
2022-07-25T06:15:47.859Z,71.80
2022-07-25T06:18:15.069Z,70.90
2022-07-25T06:20:42.211Z,70.40
2022-07-25T06:23:09.056Z,69.80
2022-07-25T06:25:36.030Z,70.00
2022-07-25T06:28:03.001Z,69.80
2022-07-25T06:30:30.126Z,69.70
2022-07-25T06:32:58.548Z,69.50
2022-07-25T06:35:25.655Z,69.50
2022-07-25T06:37:52.622Z,68.80
2022-07-25T06:40:19.445Z,68.60
2022-07-25T06:42:48.018Z,68.50
2022-07-25T06:45:16.331Z,67.60
2022-07-25T06:47:44.188Z,67.40
2022-07-25T06:50:14.730Z,67.10
2022-07-25T06:52:42.588Z,66.80
2022-07-25T06:55:13.551Z,66.40
2022-07-25T06:57:41.400Z,66.40
2022-07-25T07:00:11.395Z,66.20
2022-07-25T07:02:58.576Z,66.50
2022-07-25T07:05:28.212Z,66.40
2022-07-25T07:07:55.414Z,66.20
2022-07-25T07:10:22.769Z,65.90
2022-07-25T07:12:50.256Z,66.00
2022-07-25T07:15:18.064Z,65.60
2022-07-25T07:17:44.857Z,65.50
2022-07-25T07:20:12.668Z,65.30
2022-07-25T07:22:47.876Z,65.30
2022-07-25T07:25:20.813Z,64.70
2022-07-25T07:27:48.133Z,65.00
2022-07-25T07:30:15.177Z,64.60
2022-07-25T07:32:43.416Z,63.80
2022-07-25T07:35:12.725Z,63.30
2022-07-25T07:37:43.401Z,62.40
2022-07-25T07:40:23.275Z,61.00
2022-07-25T07:42:51.143Z,61.90
2022-07-25T07:45:24.093Z,61.80
2022-07-25T07:47:53.929Z,61.50
2022-07-25T07:50:27.065Z,60.90
2022-07-25T07:52:55.911Z,60.30
2022-07-25T07:55:41.856Z,60.70
2022-07-25T07:58:08.804Z,61.00
2022-07-25T08:00:39.183Z,61.20
2022-07-25T08:03:08.715Z,61.30
2022-07-25T08:05:39.162Z,61.50
2022-07-25T08:08:08.545Z,61.60
2022-07-25T08:10:37.972Z,61.60
2022-07-25T08:13:17.504Z,61.70
2022-07-25T08:15:48.235Z,61.60
2022-07-25T08:18:17.943Z,61.90
2022-07-25T08:20:48.572Z,62.00
2022-07-25T08:23:15.861Z,62.80
2022-07-25T08:25:43.778Z,62.20
2022-07-25T08:28:11.083Z,62.20
2022-07-25T08:30:39.755Z,63.00
2022-07-25T08:33:10.659Z,62.30
2022-07-25T08:35:38.001Z,62.40
2022-07-25T08:38:05.303Z,62.50
2022-07-25T08:40:33.604Z,62.50
2022-07-25T08:43:00.459Z,62.50
2022-07-25T08:45:28.727Z,62.40
2022-07-25T08:47:56.614Z,62.80
2022-07-25T08:50:29.604Z,62.80
2022-07-25T08:53:16.645Z,62.70
2022-07-25T08:55:45.660Z,62.60
2022-07-25T08:58:16.416Z,62.70
2022-07-25T09:00:43.834Z,62.90
2022-07-25T09:03:11.592Z,62.50
2022-07-25T09:05:39.443Z,62.50
2022-07-25T09:08:12.663Z,62.70
2022-07-25T09:10:42.499Z,62.90
2022-07-25T09:13:14.579Z,62.80
2022-07-25T09:15:52.271Z,62.60
2022-07-25T09:18:24.937Z,63.20
2022-07-25T09:20:59.930Z,63.20
2022-07-25T09:23:35.234Z,63.20
2022-07-25T09:26:06.503Z,63.30
2022-07-25T09:28:40.622Z,63.40
2022-07-25T09:31:09.774Z,63.40
2022-07-25T09:33:48.981Z,63.40
2022-07-25T09:36:16.349Z,62.70
2022-07-25T09:39:01.189Z,62.70
2022-07-25T09:41:39.305Z,61.80
2022-07-25T09:44:30.174Z,63.00
2022-07-25T09:46:59.088Z,63.40
2022-07-25T09:49:37.041Z,63.50
2022-07-25T09:52:04.281Z,63.70
2022-07-25T09:54:31.915Z,63.40
2022-07-25T09:56:58.722Z,63.70
2022-07-25T09:59:25.606Z,63.90
2022-07-25T10:02:03.656Z,63.90
2022-07-25T10:04:43.891Z,63.80
2022-07-25T10:07:14.097Z,63.90
2022-07-25T10:09:54.369Z,64.20
2022-07-25T10:12:22.914Z,64.10
2022-07-25T10:15:09.933Z,64.10
2022-07-25T10:17:38.471Z,64.20
2022-07-25T10:20:11.194Z,64.20
2022-07-25T10:22:56.325Z,64.60
2022-07-25T10:25:23.962Z,64.70
2022-07-25T10:27:58.399Z,64.50
2022-07-25T10:30:34.585Z,64.70
2022-07-25T10:33:11.285Z,64.30
2022-07-25T10:35:38.344Z,64.40
2022-07-25T10:38:06.140Z,64.00
2022-07-25T10:40:44.996Z,64.40
2022-07-25T10:43:12.783Z,64.80
2022-07-25T10:45:48.503Z,64.70
2022-07-25T10:48:27.165Z,64.70
2022-07-25T10:51:00.219Z,64.70
2022-07-25T10:53:36.033Z,64.70
2022-07-25T10:56:08.588Z,64.40
2022-07-25T10:58:42.683Z,64.30
2022-07-25T11:01:09.747Z,64.30
2022-07-25T11:03:36.649Z,64.30
2022-07-25T11:06:03.591Z,64.90
2022-07-25T11:08:32.276Z,65.00
2022-07-25T11:11:00.823Z,65.00
2022-07-25T11:13:28.246Z,64.90
2022-07-25T11:15:59.041Z,64.90
2022-07-25T11:18:40.593Z,64.70
2022-07-25T11:21:09.402Z,64.80
2022-07-25T11:23:37.672Z,65.20
2022-07-25T11:26:13.773Z,65.30
2022-07-25T11:28:45.813Z,65.40
2022-07-25T11:31:14.516Z,65.10
2022-07-25T11:33:44.335Z,65.10
2022-07-25T11:36:12.175Z,63.50
2022-07-25T11:38:40.308Z,64.30
2022-07-25T11:41:07.949Z,64.40
2022-07-25T11:43:35.473Z,65.50
2022-07-25T11:46:07.374Z,64.50
2022-07-25T11:48:39.727Z,64.70
2022-07-25T11:51:19.676Z,65.10
2022-07-25T11:53:49.658Z,64.80
2022-07-25T11:56:41.931Z,64.90
2022-07-25T11:59:10.489Z,65.00
2022-07-25T12:01:40.083Z,65.00
2022-07-25T12:04:16.702Z,65.00
2022-07-25T12:06:46.213Z,65.10
2022-07-25T12:09:18.593Z,65.20
2022-07-25T12:11:47.211Z,65.20
2022-07-25T12:14:14.923Z,65.20
2022-07-25T12:16:42.296Z,65.30
2022-07-25T12:19:19.386Z,65.30
2022-07-25T12:21:47.005Z,65.20
2022-07-25T12:24:13.931Z,65.40
2022-07-25T12:26:40.850Z,65.30
2022-07-25T12:29:08.165Z,65.40
2022-07-25T12:31:35.320Z,65.60
2022-07-25T12:34:02.470Z,65.60
2022-07-25T12:36:29.303Z,65.70
2022-07-25T12:38:56.154Z,63.80
2022-07-25T12:41:23.598Z,63.80
2022-07-25T12:43:50.400Z,63.10
2022-07-25T12:46:17.655Z,64.70
2022-07-25T12:48:44.692Z,64.50
2022-07-25T12:51:11.590Z,63.90
2022-07-25T12:53:42.233Z,62.10
2022-07-25T12:56:09.682Z,61.70
2022-07-25T12:58:37.829Z,62.80
2022-07-25T13:01:06.204Z,61.40
2022-07-25T13:03:33.344Z,61.90
2022-07-25T13:06:00.516Z,62.40
2022-07-25T13:08:27.524Z,61.90
2022-07-25T13:10:54.882Z,62.60
2022-07-25T13:13:21.743Z,61.90
2022-07-25T13:15:48.828Z,63.90
2022-07-25T13:18:15.645Z,64.70
2022-07-25T13:20:42.405Z,62.60
2022-07-25T13:23:13.644Z,63.70
2022-07-25T13:25:43.177Z,64.70
2022-07-25T13:28:11.060Z,64.00
2022-07-25T13:30:38.309Z,65.00
2022-07-25T13:33:05.125Z,63.20
2022-07-25T13:35:38.156Z,61.40
2022-07-25T13:38:05.105Z,62.10
2022-07-25T13:40:32.366Z,62.60
2022-07-25T13:42:59.244Z,62.50
2022-07-25T13:45:26.137Z,62.90
2022-07-25T13:48:12.133Z,63.20
2022-07-25T13:50:40.035Z,62.50
2022-07-25T13:53:10.145Z,62.80
2022-07-25T13:55:38.061Z,63.40
2022-07-25T13:58:04.861Z,63.10
2022-07-25T14:00:31.619Z,62.30
2022-07-25T14:02:58.435Z,62.90
2022-07-25T14:05:25.269Z,62.30
2022-07-25T14:07:52.130Z,62.30
2022-07-25T14:10:19.109Z,61.20
2022-07-25T14:12:45.866Z,60.90
2022-07-25T14:15:13.266Z,61.50
2022-07-25T14:17:40.090Z,61.30
2022-07-25T14:20:08.236Z,61.50
2022-07-25T14:22:35.062Z,61.80
2022-07-25T14:25:02.364Z,60.20
2022-07-25T14:27:29.308Z,61.00
2022-07-25T14:29:56.118Z,61.00
2022-07-25T14:32:23.898Z,60.80
2022-07-25T14:34:52.512Z,60.10
2022-07-25T14:37:20.589Z,61.10
2022-07-25T14:39:47.841Z,62.20
2022-07-25T14:42:15.174Z,62.00
2022-07-25T14:44:42.950Z,61.90
2022-07-25T14:47:12.522Z,61.80
2022-07-25T14:49:40.681Z,62.10
2022-07-25T14:52:07.458Z,61.60
2022-07-25T14:54:34.259Z,62.60
2022-07-25T14:57:01.241Z,62.80
2022-07-25T14:59:28.024Z,61.70
2022-07-25T15:01:54.769Z,61.50
2022-07-25T15:04:25.055Z,62.00
2022-07-25T15:06:53.137Z,62.10
2022-07-25T15:09:20.751Z,63.00
2022-07-25T15:11:48.058Z,62.50
2022-07-25T15:14:15.054Z,62.70
2022-07-25T15:16:43.330Z,61.50
2022-07-25T15:19:18.522Z,64.50
2022-07-25T15:21:45.968Z,65.70
2022-07-25T15:24:13.716Z,67.40
2022-07-25T15:26:40.614Z,66.90
2022-07-25T15:29:09.645Z,67.50
2022-07-25T15:31:37.475Z,65.10
2022-07-25T15:34:04.540Z,63.90
2022-07-25T15:36:31.361Z,63.70
2022-07-25T15:38:58.201Z,64.80
2022-07-25T15:41:25.086Z,65.50
2022-07-25T15:43:51.888Z,63.90
2022-07-25T15:46:18.976Z,64.30
2022-07-25T15:48:45.985Z,65.10
2022-07-25T15:51:16.915Z,64.50
2022-07-25T15:53:44.596Z,64.50
2022-07-25T15:56:16.003Z,64.70
2022-07-25T15:58:44.105Z,65.00
2022-07-25T16:01:11.002Z,65.30
2022-07-25T16:03:37.879Z,64.80
2022-07-25T16:06:05.031Z,65.00
2022-07-25T16:08:32.180Z,65.00
2022-07-25T16:10:59.986Z,64.10
2022-07-25T16:13:26.822Z,63.90
2022-07-25T16:15:53.745Z,64.00
2022-07-25T16:18:20.785Z,64.00
2022-07-25T16:20:47.690Z,63.40
2022-07-25T16:23:14.529Z,63.60
2022-07-25T16:25:41.282Z,64.00
2022-07-25T16:28:08.086Z,63.80
2022-07-25T16:30:35.804Z,63.90
2022-07-25T16:33:02.551Z,64.30
2022-07-25T16:35:31.045Z,64.20
2022-07-25T16:37:57.846Z,65.10
2022-07-25T16:40:28.694Z,65.00
2022-07-25T16:42:59.189Z,64.90
2022-07-25T16:45:26.919Z,65.30
2022-07-25T16:47:53.951Z,65.50
2022-07-25T16:50:21.277Z,65.60
2022-07-25T16:52:48.390Z,65.80
2022-07-25T16:55:15.281Z,65.60
2022-07-25T16:57:42.072Z,65.90
2022-07-25T17:00:10.556Z,66.00
2022-07-25T17:02:37.718Z,65.80
2022-07-25T17:05:04.996Z,66.20
2022-07-25T17:07:32.390Z,66.90
2022-07-25T17:09:59.157Z,67.20
2022-07-25T17:12:25.931Z,67.10
2022-07-25T17:14:52.689Z,67.70
2022-07-25T17:17:19.441Z,67.20
2022-07-25T17:19:46.363Z,67.20
2022-07-25T17:22:13.263Z,67.30
2022-07-25T17:24:40.748Z,67.50
2022-07-25T17:27:08.688Z,67.70
2022-07-25T17:29:36.217Z,67.40
2022-07-25T17:32:03.495Z,67.40
2022-07-25T17:34:30.299Z,67.40
2022-07-25T17:36:57.384Z,67.80
2022-07-25T17:39:25.494Z,67.50
2022-07-25T17:41:52.450Z,67.60
2022-07-25T17:44:20.470Z,67.80
2022-07-25T17:46:47.660Z,68.00
2022-07-25T17:49:14.812Z,68.10
2022-07-25T17:51:41.694Z,68.10
2022-07-25T17:54:08.743Z,68.30
2022-07-25T17:56:35.846Z,68.40
2022-07-25T17:59:02.653Z,68.30
2022-07-25T18:01:30.067Z,68.30
2022-07-25T18:03:57.084Z,68.50
2022-07-25T18:06:29.206Z,68.50
2022-07-25T18:08:56.891Z,68.60
2022-07-25T18:11:23.818Z,68.80
2022-07-25T18:13:50.669Z,69.10
2022-07-25T18:16:17.741Z,68.90
2022-07-25T18:18:44.577Z,69.20
2022-07-25T18:21:11.342Z,68.90
2022-07-25T18:23:38.133Z,69.50
2022-07-25T18:26:05.313Z,70.30
2022-07-25T18:28:32.282Z,70.50
2022-07-25T18:30:59.154Z,70.60
2022-07-25T18:33:27.036Z,70.80
2022-07-25T18:35:54.144Z,71.30
2022-07-25T18:38:21.040Z,71.40
2022-07-25T18:40:49.592Z,71.00
2022-07-25T18:43:21.161Z,69.90
2022-07-25T18:45:50.772Z,69.50
2022-07-25T18:48:17.893Z,69.40
2022-07-25T18:50:44.678Z,69.80
2022-07-25T18:53:11.571Z,69.40
2022-07-25T18:55:38.506Z,69.40
2022-07-25T18:58:05.582Z,68.60
2022-07-25T19:00:32.349Z,68.70
2022-07-25T19:02:59.145Z,68.40
2022-07-25T19:05:26.860Z,69.40
2022-07-25T19:07:53.740Z,69.40
2022-07-25T19:10:27.979Z,69.50
2022-07-25T19:12:55.026Z,69.90
2022-07-25T19:15:22.814Z,70.10
2022-07-25T19:17:49.693Z,70.10
2022-07-25T19:20:16.506Z,70.70
2022-07-25T19:22:43.265Z,70.80
2022-07-25T19:25:10.933Z,70.80
2022-07-25T19:27:39.466Z,70.90
2022-07-25T19:30:08.009Z,70.70
2022-07-25T19:32:35.991Z,70.30
2022-07-25T19:35:05.089Z,70.30
2022-07-25T19:37:32.142Z,71.20
2022-07-25T19:39:59.221Z,70.70
2022-07-25T19:42:26.511Z,70.90
2022-07-25T19:44:53.238Z,70.60
2022-07-25T19:47:20.215Z,70.40
2022-07-25T19:49:46.986Z,70.70
2022-07-25T19:52:13.899Z,71.10
2022-07-25T19:54:40.668Z,71.30
2022-07-25T19:57:07.518Z,71.40
2022-07-25T19:59:34.299Z,71.30
2022-07-25T20:02:01.959Z,71.80
2022-07-25T20:04:28.896Z,72.00
2022-07-25T20:06:55.811Z,71.10
2022-07-25T20:09:22.714Z,71.10
2022-07-25T20:11:49.612Z,70.90
2022-07-25T20:14:16.666Z,71.10
2022-07-25T20:16:43.560Z,71.20
2022-07-25T20:19:11.964Z,71.30
2022-07-25T20:21:40.205Z,71.80
2022-07-25T20:24:07.404Z,72.20
2022-07-25T20:26:34.894Z,72.00
2022-07-25T20:29:02.343Z,72.00
2022-07-25T20:31:29.154Z,71.30
2022-07-25T20:33:56.110Z,71.80
2022-07-25T20:36:31.485Z,71.70
2022-07-25T20:38:58.337Z,71.80
2022-07-25T20:41:25.765Z,71.60
2022-07-25T20:43:53.169Z,72.40
2022-07-25T20:46:20.037Z,72.90
2022-07-25T20:48:47.104Z,72.40
2022-07-25T20:51:14.126Z,72.50
2022-07-25T20:53:41.894Z,72.30
2022-07-25T20:56:09.159Z,72.50
2022-07-25T20:58:35.991Z,72.60
2022-07-25T21:01:03.205Z,72.40
2022-07-25T21:03:30.947Z,72.90
2022-07-25T21:05:57.790Z,72.60
2022-07-25T21:08:24.719Z,72.60
2022-07-25T21:10:51.563Z,73.20
2022-07-25T21:13:18.659Z,73.10
2022-07-25T21:15:45.507Z,72.90
2022-07-25T21:18:12.382Z,73.20
2022-07-25T21:20:39.271Z,73.50
2022-07-25T21:23:06.075Z,73.60
2022-07-25T21:25:32.891Z,73.70
2022-07-25T21:27:59.591Z,73.80
2022-07-25T21:30:26.516Z,73.50
2022-07-25T21:32:53.831Z,73.30
2022-07-25T21:35:21.477Z,73.00
2022-07-25T21:37:48.932Z,72.60
2022-07-25T21:40:16.050Z,72.90
2022-07-25T21:42:43.335Z,73.00
2022-07-25T21:45:11.010Z,73.40
2022-07-25T21:47:37.934Z,73.40
2022-07-25T21:50:25.070Z,72.90
2022-07-25T21:52:53.929Z,72.80
2022-07-25T21:55:24.653Z,72.80
2022-07-25T21:57:52.381Z,72.70
2022-07-25T22:00:20.433Z,72.90
2022-07-25T22:02:47.546Z,72.80
2022-07-25T22:05:16.169Z,72.50
2022-07-25T22:07:46.316Z,72.90
2022-07-25T22:10:16.620Z,73.00
2022-07-25T22:12:46.966Z,73.40
2022-07-25T22:15:14.861Z,73.40
2022-07-25T22:17:48.318Z,72.90
2022-07-25T22:20:16.578Z,72.90
2022-07-25T22:22:43.418Z,73.20
2022-07-25T22:25:10.908Z,73.90
2022-07-25T22:27:37.823Z,73.50
2022-07-25T22:30:06.863Z,73.70
2022-07-25T22:32:33.701Z,73.40
2022-07-25T22:35:01.259Z,72.90
2022-07-25T22:37:32.559Z,73.50
2022-07-25T22:40:01.440Z,73.10
2022-07-25T22:42:28.960Z,73.20
2022-07-25T22:44:56.916Z,72.70
2022-07-25T22:47:23.966Z,72.50
2022-07-25T22:49:50.778Z,73.30
2022-07-25T22:52:18.278Z,73.30
2022-07-25T22:54:48.199Z,73.20
2022-07-25T22:57:15.038Z,73.10
2022-07-25T22:59:41.881Z,72.90
2022-07-25T23:02:09.546Z,73.20
2022-07-25T23:04:38.300Z,73.50
2022-07-25T23:07:05.150Z,73.10
2022-07-25T23:09:36.362Z,73.50
2022-07-25T23:12:04.875Z,73.60
2022-07-25T23:14:32.300Z,73.70
2022-07-25T23:17:17.751Z,73.70
2022-07-25T23:19:49.540Z,73.80
2022-07-25T23:22:20.735Z,73.20
2022-07-25T23:24:47.715Z,73.90
2022-07-25T23:27:15.260Z,74.00
2022-07-25T23:29:42.469Z,74.00
2022-07-25T23:32:09.402Z,74.80
2022-07-25T23:34:36.474Z,74.40
2022-07-25T23:37:04.571Z,74.80
2022-07-25T23:39:31.881Z,74.80
2022-07-25T23:42:00.082Z,74.50
2022-07-25T23:44:27.433Z,75.30
2022-07-25T23:46:56.789Z,75.60
2022-07-25T23:49:24.358Z,75.60
2022-07-25T23:51:51.518Z,74.80
2022-07-25T23:54:18.396Z,74.80
2022-07-25T23:56:45.115Z,75.00
2022-07-25T23:59:11.981Z,75.10
